Saturday, July 30, 2016, 11:24 PM EDT

KW99, Petersburg, Grant County Airport

Location: Petersburg, WV, United States Lat: 38.983
Local Time: 11:24 PM EDT ( 3:24 GMT) Lon: -79.133
Time Zone: US/Eastern Elev: 961 ft

Show me the last for .
Show Decoded

2016-07-30 22:55 METAR KW99 310255Z AUTO 00000KT 10SM CLR 23/21 A3002 RMK AO2 T02260209 =
2016-07-30 22:35 METAR KW99 310235Z AUTO 27004KT 10SM SCT060 SCT120 23/21 A3001 RMK AO2 T02320208
                 =
2016-07-30 22:15 METAR KW99 310215Z AUTO 00000KT 10SM SCT060 SCT120 24/21 A3001 RMK AO2 T02360207
                 =
2016-07-30 21:55 METAR KW99 310155Z AUTO 00000KT 10SM SCT110 24/21 A3001 RMK AO2 T02410206 =
2016-07-30 21:35 METAR KW99 310135Z AUTO 36004KT 10SM SCT046 SCT070 SCT110 25/20 A3000 RMK AO2
                 T02450202 =
2016-07-30 21:15 METAR KW99 310115Z AUTO 04006KT 10SM BKN044 BKN070 26/20 A2999 RMK AO2 T02570204
                 =
2016-07-30 20:55 METAR KW99 310055Z AUTO 32003KT 10SM BKN046 OVC055 25/23 A2998 RMK AO2 T02530229
                 =
2016-07-30 20:35 METAR KW99 310035Z AUTO 14005KT 10SM SCT048 BKN055 OVC095 26/22 A2997 RMK AO2
                 T02600222 =
2016-07-30 20:15 METAR KW99 310015Z AUTO 14003KT 10SM SCT055 BKN100 27/22 A2996 RMK AO2 LTG DSNT
                 SE T02650221 =
2016-07-30 19:55 METAR KW99 302355Z AUTO 00000KT 10SM SCT100 26/23 A2995 RMK AO2 LTG DSNT E AND
                 SE T02640228 10325 20264 =
2016-07-30 18:55 METAR KW99 302255Z AUTO 00000KT 10SM SCT110 29/20 A2995 RMK AO2 LTG DSNT SE AND
                 S T02900202 =
2016-07-30 18:35 METAR KW99 302235Z AUTO 00000KT 10SM SCT100 SCT120 30/21 A2994 RMK AO2 LTG DSNT
                 SE T02970206 =
2016-07-30 18:15 METAR KW99 302215Z AUTO 25006KT 10SM SCT100 SCT120 29/21 A2993 RMK AO2 LTG DSNT
                 E T02900206 =
2016-07-30 17:55 METAR KW99 302155Z AUTO 27008KT 10SM SCT120 30/20 A2992 RMK AO2 LTG DSNT E
                 T03030204 =
2016-07-30 17:35 METAR KW99 302135Z AUTO 26007KT 10SM SCT100 SCT120 30/20 A2992 RMK AO2 LTG DSNT
                 E AND SE T03010204 =
2016-07-30 16:35 METAR KW99 302035Z AUTO 28011KT 10SM SCT065 SCT090 30/21 A2991 RMK AO2 LTG DSNT
                 E AND SE T03010211 =
2016-07-30 16:15 METAR KW99 302015Z AUTO 28013G17KT 10SM BKN065 BKN075 BKN090 31/21 A2992 RMK AO2
                 T03100212 =
2016-07-30 15:55 METAR KW99 301955Z AUTO 26012KT 10SM SCT060 SCT090 32/20 A2991 RMK AO2 T03160203
                 =
2016-07-30 15:35 METAR KW99 301935Z AUTO 24007KT 10SM SCT060 SCT090 33/21 A2991 RMK AO2 LTG DSNT
                 NE AND NW T03250210 =
2016-07-30 15:15 METAR KW99 301915Z AUTO 27004KT 10SM SCT100 SCT120 32/21 A2992 RMK AO2 T03230209
                 =
2016-07-30 14:55 METAR KW99 301855Z AUTO 15003KT 10SM SCT065 BKN075 BKN100 31/22 A2993 RMK AO2
                 LTG DSNT E T03070218 =
2016-07-30 14:35 METAR KW99 301835Z AUTO 24005KT 10SM BKN065 OVC075 31/21 A2993 RMK AO2 T03100208
                 =
2016-07-30 14:15 METAR KW99 301815Z AUTO 24005KT 10SM SCT065 SCT075 31/21 A2993 RMK AO2 T03110208
                 =
2016-07-30 13:55 METAR KW99 301755Z AUTO 00000KT 10SM SCT070 31/22 A2994 RMK AO2 LTG DSNT SE
                 T03080222 10312 20227 =
2016-07-30 13:35 METAR KW99 301735Z AUTO 00000KT 10SM SCT048 BKN070 30/22 A2994 RMK AO2 T03020222
                 =
2016-07-30 13:15 METAR KW99 301715Z AUTO 00000KT 10SM BKN048 BKN060 31/21 A2995 RMK AO2 LTG DSNT
                 E T03080210 =
2016-07-30 12:55 METAR KW99 301655Z AUTO 00000KT 10SM SCT045 SCT050 31/21 A2995 RMK AO2 T03080214
                 =
2016-07-30 12:35 METAR KW99 301635Z AUTO 00000KT 10SM SCT090 31/21 A2996 RMK AO2 T03060210 =
2016-07-30 12:15 METAR KW99 301615Z AUTO 00000KT 10SM CLR 30/21 A2996 RMK AO2 T03010214 =
2016-07-30 11:55 METAR KW99 301555Z AUTO 00000KT 10SM CLR 30/22 A2997 RMK AO2 T03000215 =
2016-07-30 11:35 METAR KW99 301535Z AUTO 00000KT 10SM CLR 30/22 A2997 RMK AO2 T03000220 =
2016-07-30 11:15 METAR KW99 301515Z AUTO 00000KT 10SM CLR 30/22 A2997 RMK AO2 LTG DSNT N
                 T02960221 =
2016-07-30 10:55 METAR KW99 301455Z AUTO 00000KT 10SM CLR 30/22 A2997 RMK AO2 T02950223 =
2016-07-30 10:35 METAR KW99 301435Z AUTO 00000KT 10SM CLR 29/23 A2997 RMK AO2 T02870226 =
2016-07-30 10:15 METAR KW99 301415Z AUTO 00000KT 10SM CLR 27/22 A2997 RMK AO2 T02740219 =
2016-07-30 09:55 METAR KW99 301355Z AUTO 00000KT 10SM CLR 26/22 A2998 RMK AO2 LTG DSNT N
                 T02640218 =
2016-07-30 09:35 METAR KW99 301335Z AUTO 00000KT 10SM CLR 25/22 A2999 RMK AO2 LTG DSNT SE
                 T02520215 =
2016-07-30 09:15 METAR KW99 301315Z AUTO 00000KT 10SM CLR 25/22 A2999 RMK AO2 T02470218 =
2016-07-30 08:55 METAR KW99 301255Z AUTO 00000KT 10SM CLR 24/21 A2999 RMK AO2 T02370212 =
2016-07-30 08:35 METAR KW99 301235Z AUTO 00000KT 10SM SCT110 24/22 A2999 RMK AO2 T02370215 =
2016-07-30 08:15 METAR KW99 301215Z AUTO 00000KT 10SM BKN110 23/21 A2999 RMK AO2 LTG DSNT NW
                 T02290211 =
2016-07-30 07:55 METAR KW99 301155Z AUTO 00000KT 7SM CLR 23/22 A2999 RMK AO2 LTG DSNT NW
                 T02260215 10226 20211 =
2016-07-30 07:35 METAR KW99 301135Z AUTO 00000KT 5SM BR CLR 22/21 A2999 RMK AO2 T02170212 =
2016-07-30 07:15 METAR KW99 301115Z AUTO 00000KT 5SM BR CLR 22/21 A2999 RMK AO2 T02160211 =
2016-07-30 06:55 METAR KW99 301055Z AUTO 00000KT 3SM BR SCT002 SCT120 22/21 A2998 RMK AO2
                 T02150211 =
2016-07-30 06:35 METAR KW99 301035Z AUTO 00000KT 5SM BR SCT002 SCT120 21/21 A2998 RMK AO2
                 T02130210 =
2016-07-30 06:15 METAR KW99 301015Z AUTO 00000KT 5SM BR SCT002 SCT120 21/21 A2997 RMK AO2
                 T02130210 =
2016-07-30 05:55 METAR KW99 300955Z AUTO 00000KT 5SM BR SCT070 BKN100 21/21 A2997 RMK AO2
                 T02130210 =
2016-07-30 05:35 METAR KW99 300935Z AUTO 00000KT 5SM -RA BKN070 OVC090 21/21 A2996 RMK AO2
                 T02120210 =
2016-07-30 05:15 METAR KW99 300915Z AUTO 00000KT 4SM BR SCT070 BKN090 BKN120 21/21 A2996 RMK AO2
                 T02130210 =
2016-07-30 04:55 METAR KW99 300855Z AUTO 00000KT 5SM BR SCT090 OVC120 21/21 A2996 RMK AO2
                 T02130210 =
2016-07-30 04:54 METAR KW99 300854Z AUTO 00000KT 5SM BR SCT090 OVC120 21/21 A2996 RMK AO2 =
2016-07-30 04:35 METAR KW99 300835Z AUTO 00000KT 5SM BR SCT100 OVC120 21/21 A2996 RMK AO2
                 T02130210 =
2016-07-30 04:15 METAR KW99 300815Z AUTO 00000KT 5SM BR SCT090 OVC110 22/21 A2995 RMK AO2
                 T02150210 =
2016-07-30 03:55 METAR KW99 300755Z AUTO 00000KT 5SM BR OVC090 22/21 A2996 RMK AO2 T02150210 =
2016-07-30 03:35 METAR KW99 300735Z AUTO 00000KT 7SM OVC090 22/21 A2996 RMK AO2 T02150210 =
2016-07-30 03:15 METAR KW99 300715Z AUTO 00000KT 7SM OVC100 22/21 A2996 RMK AO2 T02150209 =
2016-07-30 02:55 METAR KW99 300655Z AUTO 00000KT 5SM BR OVC100 21/21 A2996 RMK AO2 T02130210 =
2016-07-30 02:35 METAR KW99 300635Z AUTO 00000KT 7SM OVC110 21/21 A2997 RMK AO2 T02130207 =
2016-07-30 02:15 METAR KW99 300615Z AUTO 00000KT 7SM OVC110 21/21 A2997 RMK AO2 T02120207 =
2016-07-30 01:55 METAR KW99 300555Z AUTO 00000KT 7SM OVC110 21/21 A2998 RMK AO2 T02110205 10255
                 20207 403060207 =
2016-07-30 01:35 METAR KW99 300535Z AUTO 00000KT 7SM OVC110 21/21 A2998 RMK AO2 T02100205 =
2016-07-30 01:15 METAR KW99 300515Z AUTO 00000KT 5SM BR BKN110 21/21 A2999 RMK AO2 T02070205 =
2016-07-30 00:55 METAR KW99 300455Z AUTO 00000KT 5SM BR SCT110 21/21 A2999 RMK AO2 T02090205 =
2016-07-30 00:35 METAR KW99 300435Z AUTO 00000KT 7SM CLR 21/21 A3000 RMK AO2 T02100206 =
2016-07-30 00:15 METAR KW99 300415Z AUTO 00000KT 5SM BR CLR 21/21 A2999 RMK AO2 T02090205 =
2016-07-29 23:55 METAR KW99 300355Z AUTO 00000KT 7SM CLR 21/21 A2999 RMK AO2 T02100205 =
2016-07-29 23:35 METAR KW99 300335Z AUTO 00000KT 10SM CLR 21/21 A2999 RMK AO2 T02130205 =

Support USWX by starting your Amazon purchase here.